Time;durP1;ratioP1;P1;durP2;ratioP2;P2;SDS_P1;SDS_P2;PMS_P1;PMS_P2;Temp;Humidity;BMP_temperature;BMP_pressure;BME280_temperature;BME280_humidity;BME280_pressure;Samples;Min_cycle;Max_cycle;Signal;HPM_P1;HPM_P2
2023/07/26 00:00:53;;;;;;;2.97;0.98;;;13.40;99.90;;;;;;5091821;28;20043;-63
2023/07/26 00:03:19;;;;;;;6.30;0.93;;;13.40;99.90;;;;;;5069324;28;20351;-63
2023/07/26 00:05:45;;;;;;;2.15;0.98;;;13.40;99.90;;;;;;5070740;28;20051;-63
2023/07/26 00:08:10;;;;;;;1.60;0.68;;;13.40;99.90;;;;;;5056579;28;20044;-63
2023/07/26 00:10:36;;;;;;;5.40;0.98;;;13.40;99.90;;;;;;5052957;28;20045;-63
2023/07/26 00:13:03;;;;;;;1.73;0.75;;;13.40;99.90;;;;;;5053770;28;20079;-63
2023/07/26 00:15:29;;;;;;;1.20;0.50;;;13.40;99.90;;;;;;5071522;28;20523;-63
2023/07/26 00:17:54;;;;;;;2.55;0.90;;;13.40;99.90;;;;;;5052817;28;20040;-63
2023/07/26 00:20:20;;;;;;;1.80;0.80;;;13.30;99.90;;;;;;5036793;28;20048;-63
2023/07/26 00:22:46;;;;;;;1.08;0.98;;;13.30;99.90;;;;;;5052984;28;20048;-63
2023/07/26 00:25:12;;;;;;;1.85;1.15;;;13.30;99.90;;;;;;5053446;28;20036;-63
2023/07/26 00:27:38;;;;;;;1.30;0.80;;;13.30;99.90;;;;;;5079520;28;20109;-63
2023/07/26 00:30:04;;;;;;;3.58;1.05;;;13.20;99.90;;;;;;5092410;28;20031;-63
2023/07/26 00:32:30;;;;;;;1.83;0.70;;;13.20;99.90;;;;;;5111777;28;20039;-63
2023/07/26 00:34:56;;;;;;;2.75;1.10;;;13.10;99.90;;;;;;5093492;28;20046;-63
2023/07/26 00:37:22;;;;;;;0.90;0.57;;;13.00;99.90;;;;;;5106133;28;20484;-63
2023/07/26 00:39:47;;;;;;;3.13;1.20;;;12.90;99.90;;;;;;5053788;28;20119;-63
2023/07/26 00:42:17;;;;;;;1.48;1.00;;;12.90;99.90;;;;;;5073068;28;20051;-63
2023/07/26 00:44:43;;;;;;;1.88;0.88;;;12.80;99.90;;;;;;5072343;28;20055;-63
2023/07/26 00:47:09;;;;;;;3.28;1.20;;;12.70;99.90;;;;;;5073016;28;20044;-63
2023/07/26 00:49:35;;;;;;;2.25;1.02;;;12.70;99.90;;;;;;5072922;28;20072;-63
2023/07/26 00:52:02;;;;;;;2.15;0.98;;;12.60;99.90;;;;;;5072214;28;20075;-63
2023/07/26 00:54:28;;;;;;;2.45;0.85;;;12.60;99.90;;;;;;5073132;28;20686;-63
2023/07/26 00:56:54;;;;;;;4.13;0.82;;;12.50;99.90;;;;;;5091062;28;20036;-63
2023/07/26 00:59:20;;;;;;;1.20;0.75;;;12.50;99.90;;;;;;5086261;28;20041;-63
2023/07/26 01:01:45;;;;;;;1.80;0.65;;;12.50;99.90;;;;;;5067049;28;20078;-63
2023/07/26 01:04:11;;;;;;;3.85;1.05;;;12.50;99.90;;;;;;5057629;28;20413;-63
2023/07/26 01:06:56;;;;;;;1.58;0.60;;;12.40;99.90;;;;;;5070105;28;20123;-63
2023/07/26 01:09:30;;;;;;;3.05;1.05;;;12.40;99.90;;;;;;5052903;28;20076;-64
2023/07/26 01:12:20;;;;;;;2.33;1.15;;;12.30;99.90;;;;;;5052045;28;20048;-64
2023/07/26 01:14:55;;;;;;;;;;;12.30;99.90;;;;;;5070983;28;20388;-63
2023/07/26 01:17:20;;;;;;;0.98;0.50;;;12.30;99.90;;;;;;5070553;28;19920;-63
2023/07/26 01:19:46;;;;;;;1.80;0.77;;;12.20;99.90;;;;;;5052067;28;20439;-63
2023/07/26 01:22:12;;;;;;;2.38;0.77;;;12.20;99.90;;;;;;5035958;28;20480;-63
2023/07/26 01:24:38;;;;;;;1.35;0.70;;;12.10;99.90;;;;;;5052399;28;20131;-63
2023/07/26 01:27:04;;;;;;;2.03;0.80;;;12.20;99.90;;;;;;5055132;28;20061;-63
2023/07/26 01:29:30;;;;;;;1.73;0.82;;;12.10;99.90;;;;;;5031794;28;20116;-63
2023/07/26 01:31:56;;;;;;;1.85;0.80;;;12.10;99.90;;;;;;5031421;28;20037;-63
2023/07/26 01:34:22;;;;;;;1.42;0.75;;;12.00;99.90;;;;;;5059465;28;20072;-63
2023/07/26 01:36:51;;;;;;;3.28;1.08;;;11.90;99.90;;;;;;5051331;28;20047;-63
2023/07/26 01:39:18;;;;;;;0.82;0.70;;;11.80;99.90;;;;;;5017477;28;20041;-63
2023/07/26 01:41:48;;;;;;;1.75;0.65;;;11.70;99.90;;;;;;5030405;28;20124;-63
2023/07/26 01:44:14;;;;;;;1.23;0.50;;;11.70;99.90;;;;;;5031512;28;20074;-63
2023/07/26 01:46:40;;;;;;;1.95;1.00;;;11.60;99.90;;;;;;5048825;28;20041;-63
2023/07/26 01:49:06;;;;;;;1.83;0.75;;;11.50;99.90;;;;;;5031617;28;20056;-63
2023/07/26 01:51:32;;;;;;;2.05;0.80;;;11.50;99.90;;;;;;5049121;28;20048;-63
2023/07/26 01:53:57;;;;;;;1.52;0.88;;;11.40;99.90;;;;;;5030877;28;20043;-63
2023/07/26 01:56:23;;;;;;;1.65;0.75;;;11.30;99.90;;;;;;5031047;28;20044;-63
2023/07/26 01:58:49;;;;;;;1.30;0.60;;;11.30;99.90;;;;;;5017085;28;20037;-63
2023/07/26 02:01:15;;;;;;;1.55;0.60;;;11.20;99.90;;;;;;5051003;28;20052;-63
2023/07/26 02:03:41;;;;;;;1.52;0.47;;;11.20;99.90;;;;;;5069076;28;20501;-63
2023/07/26 02:06:06;;;;;;;1.73;0.70;;;11.20;99.90;;;;;;5034833;28;20050;-63
2023/07/26 02:08:32;;;;;;;1.17;0.68;;;11.10;99.90;;;;;;5050331;28;20131;-63
2023/07/26 02:10:58;;;;;;;3.13;0.90;;;11.10;99.90;;;;;;5034009;28;20041;-63
2023/07/26 02:13:24;;;;;;;3.72;1.20;;;11.10;99.90;;;;;;5051178;28;20033;-63
2023/07/26 02:15:50;;;;;;;5.05;0.70;;;11.00;99.90;;;;;;5034160;28;20141;-62
2023/07/26 02:18:16;;;;;;;1.20;0.63;;;11.00;99.90;;;;;;5051122;28;20105;-62
2023/07/26 02:20:41;;;;;;;1.35;0.55;;;11.00;99.90;;;;;;5034372;28;20102;-62
2023/07/26 02:23:07;;;;;;;1.35;0.70;;;11.00;99.90;;;;;;5050037;28;20084;-62
2023/07/26 02:25:33;;;;;;;2.40;0.90;;;11.00;99.90;;;;;;5007380;28;1271526;-62
2023/07/26 02:27:59;;;;;;;1.58;0.68;;;11.00;99.90;;;;;;5055038;28;20146;-63
2023/07/26 02:30:24;;;;;;;1.85;0.90;;;11.00;99.90;;;;;;5054198;28;20093;-63
2023/07/26 02:32:50;;;;;;;2.97;0.75;;;11.00;99.90;;;;;;5071657;28;20076;-63
2023/07/26 02:35:16;;;;;;;1.25;0.77;;;11.00;99.90;;;;;;5054889;28;20040;-62
2023/07/26 02:37:42;;;;;;;4.57;0.70;;;11.00;99.90;;;;;;5071120;28;20123;-63
2023/07/26 02:40:08;;;;;;;2.45;1.05;;;11.00;99.90;;;;;;5072068;28;20044;-62
2023/07/26 02:42:34;;;;;;;2.45;0.85;;;11.00;99.90;;;;;;5072002;28;20098;-62
2023/07/26 02:45:00;;;;;;;1.35;0.70;;;11.00;99.90;;;;;;5089258;28;20488;-63
2023/07/26 02:47:26;;;;;;;5.63;1.20;;;11.10;99.90;;;;;;5089754;28;20504;-63
2023/07/26 02:49:52;;;;;;;1.45;0.85;;;11.10;99.90;;;;;;5071414;28;20043;-63
2023/07/26 02:52:17;;;;;;;2.05;0.90;;;11.10;99.90;;;;;;5056955;28;20487;-63
2023/07/26 02:54:43;;;;;;;2.10;1.00;;;11.10;99.90;;;;;;5074930;28;20051;-63
2023/07/26 02:57:09;;;;;;;1.35;0.95;;;11.20;99.90;;;;;;5073753;28;20072;-63
2023/07/26 02:59:35;;;;;;;3.97;0.95;;;11.20;99.90;;;;;;5063278;28;20473;-63
2023/07/26 03:02:01;;;;;;;1.60;0.63;;;11.20;99.90;;;;;;5093059;28;20043;-63
2023/07/26 03:04:26;;;;;;;1.48;0.82;;;11.30;99.90;;;;;;5092330;28;20048;-63
2023/07/26 03:06:52;;;;;;;2.65;1.10;;;11.30;99.90;;;;;;5075065;28;20177;-63
2023/07/26 03:09:18;;;;;;;1.48;0.93;;;11.30;99.90;;;;;;5074759;28;20675;-63
2023/07/26 03:11:44;;;;;;;2.00;0.90;;;11.30;99.90;;;;;;5074149;28;20044;-63
2023/07/26 03:14:09;;;;;;;1.60;1.02;;;11.30;99.90;;;;;;5074867;28;20039;-63
2023/07/26 03:16:35;;;;;;;2.72;1.00;;;11.30;99.90;;;;;;5074667;28;20190;-63
2023/07/26 03:19:01;;;;;;;1.05;0.70;;;11.30;99.90;;;;;;5074020;28;20047;-63
2023/07/26 03:21:27;;;;;;;1.75;0.82;;;11.30;99.90;;;;;;5092709;28;20079;-64
2023/07/26 03:23:53;;;;;;;1.83;1.20;;;11.30;99.90;;;;;;5092996;28;20166;-64
2023/07/26 03:26:19;;;;;;;1.83;1.13;;;11.40;99.90;;;;;;5095643;28;20047;-63
2023/07/26 03:28:44;;;;;;;4.25;0.82;;;11.40;99.90;;;;;;5094708;28;20051;-63
2023/07/26 03:31:10;;;;;;;1.40;0.90;;;11.50;99.90;;;;;;5101106;28;20079;-63
2023/07/26 03:33:36;;;;;;;1.35;0.90;;;11.50;99.90;;;;;;5073782;28;20119;-63
2023/07/26 03:36:02;;;;;;;2.25;1.02;;;11.50;99.90;;;;;;5074429;28;20086;-63
2023/07/26 03:38:28;;;;;;;1.45;0.60;;;11.50;99.90;;;;;;5092455;28;20043;-63
2023/07/26 03:40:54;;;;;;;1.45;0.77;;;11.50;99.90;;;;;;5073926;28;20044;-63
2023/07/26 03:43:19;;;;;;;3.95;1.20;;;11.60;99.90;;;;;;5092367;28;20050;-63
2023/07/26 03:45:45;;;;;;;2.38;0.80;;;11.60;99.90;;;;;;5073541;28;20044;-63
2023/07/26 03:48:11;;;;;;;5.85;0.85;;;11.70;99.90;;;;;;5087626;28;20036;-63
2023/07/26 03:50:37;;;;;;;1.58;0.85;;;11.70;99.90;;;;;;5053788;28;20036;-63
2023/07/26 03:53:03;;;;;;;2.30;1.13;;;11.80;99.90;;;;;;5069114;28;20046;-63
2023/07/26 03:55:29;;;;;;;4.03;1.13;;;11.80;99.90;;;;;;5073944;28;20036;-63
2023/07/26 03:57:56;;;;;;;3.53;0.70;;;11.90;99.90;;;;;;5092280;28;20481;-63
2023/07/26 04:00:22;;;;;;;2.42;1.23;;;11.90;99.90;;;;;;5088135;28;20119;-63
2023/07/26 04:02:47;;;;;;;1.02;0.55;;;11.90;99.90;;;;;;5111504;28;20161;-62
2023/07/26 04:05:13;;;;;;;1.00;0.75;;;11.90;99.90;;;;;;5112234;28;20040;-63
2023/07/26 04:07:40;;;;;;;1.27;0.95;;;12.00;99.90;;;;;;5093344;28;20100;-63
2023/07/26 04:10:06;;;;;;;1.73;1.10;;;12.00;99.90;;;;;;5094214;28;20430;-63
2023/07/26 04:12:32;;;;;;;2.30;0.75;;;12.00;99.90;;;;;;5093885;28;20092;-63
2023/07/26 04:14:58;;;;;;;1.65;0.75;;;12.00;99.90;;;;;;5111563;28;20036;-63
2023/07/26 04:17:24;;;;;;;1.42;1.00;;;12.00;99.90;;;;;;5094198;28;20041;-63
2023/07/26 04:19:51;;;;;;;1.92;0.73;;;11.90;99.90;;;;;;5093918;28;20553;-63
2023/07/26 04:22:16;;;;;;;2.15;1.00;;;12.00;99.90;;;;;;5107642;28;20130;-63
2023/07/26 04:24:43;;;;;;;1.33;0.90;;;12.00;99.90;;;;;;5073426;28;20512;-62
2023/07/26 04:27:09;;;;;;;3.35;1.02;;;12.00;99.90;;;;;;5081554;28;20063;-62
2023/07/26 04:29:34;;;;;;;0.95;0.60;;;12.10;99.90;;;;;;5052707;28;20044;-62
2023/07/26 04:32:00;;;;;;;3.00;1.15;;;12.10;99.90;;;;;;5053328;28;20052;-62
2023/07/26 04:34:26;;;;;;;1.30;0.70;;;12.20;99.90;;;;;;5070133;28;20032;-62
2023/07/26 04:36:52;;;;;;;2.05;0.68;;;12.20;99.90;;;;;;5070543;28;20036;-62
2023/07/26 04:39:18;;;;;;;3.28;1.08;;;12.30;99.90;;;;;;5053267;28;20037;-62
2023/07/26 04:41:43;;;;;;;1.67;1.00;;;12.50;99.90;;;;;;5052902;28;20083;-62
2023/07/26 04:44:09;;;;;;;0.77;0.55;;;12.60;99.90;;;;;;5053469;28;20101;-62
2023/07/26 04:46:35;;;;;;;1.60;0.70;;;12.70;99.90;;;;;;5071245;28;20040;-62
2023/07/26 04:49:01;;;;;;;2.63;0.90;;;12.80;99.90;;;;;;5070093;28;20093;-62
2023/07/26 04:51:27;;;;;;;2.70;1.05;;;12.90;99.90;;;;;;5036341;28;20040;-62
2023/07/26 04:53:53;;;;;;;2.90;1.25;;;12.90;99.90;;;;;;5053666;28;20067;-62
2023/07/26 04:56:19;;;;;;;1.15;0.70;;;12.90;99.90;;;;;;5053339;28;20037;-62
2023/07/26 04:58:44;;;;;;;1.48;0.88;;;12.90;99.90;;;;;;5074035;28;20037;-62
2023/07/26 05:01:10;;;;;;;3.10;1.33;;;12.90;99.90;;;;;;5093016;28;20043;-62
2023/07/26 05:03:38;;;;;;;1.77;1.08;;;12.90;99.90;;;;;;5075018;28;20051;-63
2023/07/26 05:06:04;;;;;;;1.55;0.95;;;12.90;99.90;;;;;;5111081;28;20039;-62
2023/07/26 05:08:29;;;;;;;3.33;1.08;;;12.80;99.90;;;;;;5111002;28;20518;-62
2023/07/26 05:10:55;;;;;;;1.30;0.75;;;12.80;99.90;;;;;;5092367;28;20048;-63
2023/07/26 05:13:23;;;;;;;2.25;1.08;;;12.80;99.90;;;;;;5111252;28;20035;-63
2023/07/26 05:15:49;;;;;;;1.95;1.13;;;12.80;99.90;;;;;;5076005;28;20042;-63
2023/07/26 05:18:15;;;;;;;1.88;1.17;;;12.80;99.90;;;;;;5109040;28;20082;-63
2023/07/26 05:20:42;;;;;;;4.38;0.82;;;12.80;99.90;;;;;;5090770;28;20072;-63
2023/07/26 05:23:08;;;;;;;1.25;0.70;;;12.90;99.90;;;;;;5082512;28;20408;-63
2023/07/26 05:25:34;;;;;;;1.88;0.93;;;12.90;99.90;;;;;;5090742;28;20087;-62
2023/07/26 05:28:00;;;;;;;1.38;0.85;;;13.00;99.90;;;;;;5073399;28;20079;-62
2023/07/26 05:30:26;;;;;;;1.30;0.82;;;13.00;99.90;;;;;;5073033;28;20512;-63
2023/07/26 05:32:51;;;;;;;2.03;0.85;;;13.10;99.90;;;;;;5071741;28;20126;-63
2023/07/26 05:35:17;;;;;;;1.45;0.73;;;13.20;99.90;;;;;;5072642;28;20078;-62
2023/07/26 05:37:43;;;;;;;3.10;0.60;;;13.20;99.90;;;;;;5072078;28;20039;-62
2023/07/26 05:40:09;;;;;;;1.77;0.70;;;13.30;99.90;;;;;;5071962;28;20036;-62
2023/07/26 05:42:36;;;;;;;1.23;0.60;;;13.30;99.90;;;;;;5070057;28;20044;-63
2023/07/26 05:45:02;;;;;;;2.40;0.98;;;13.40;99.90;;;;;;5051796;28;20075;-63
2023/07/26 05:47:30;;;;;;;1.13;0.70;;;13.40;99.90;;;;;;5052029;28;20045;-63
2023/07/26 05:49:56;;;;;;;2.10;0.90;;;13.50;99.90;;;;;;5087295;28;20044;-63
2023/07/26 05:52:22;;;;;;;2.17;0.70;;;13.60;99.90;;;;;;5071895;28;20047;-62
2023/07/26 05:54:47;;;;;;;2.72;1.30;;;13.70;99.90;;;;;;5072653;28;20036;-61
2023/07/26 05:57:13;;;;;;;2.15;1.00;;;13.80;99.90;;;;;;5072434;28;20384;-62
2023/07/26 05:59:39;;;;;;;1.17;0.70;;;13.80;99.90;;;;;;5079395;28;20165;-62
2023/07/26 06:02:05;;;;;;;2.58;1.00;;;14.00;99.90;;;;;;5092642;28;20059;-62
2023/07/26 06:04:31;;;;;;;2.88;1.15;;;14.10;99.90;;;;;;5089437;28;20044;-61
2023/07/26 06:06:57;;;;;;;1.20;0.52;;;14.10;99.90;;;;;;5072132;28;20119;-62
2023/07/26 06:09:25;;;;;;;1.15;0.47;;;14.10;99.90;;;;;;5055179;28;20055;-62
2023/07/26 06:11:51;;;;;;;1.52;0.70;;;14.20;99.90;;;;;;5072444;28;20134;-62
2023/07/26 06:14:17;;;;;;;2.38;0.70;;;14.30;99.90;;;;;;5090234;28;20078;-62
2023/07/26 06:16:43;;;;;;;1.60;0.73;;;14.30;99.90;;;;;;5090401;28;20154;-62
2023/07/26 06:19:09;;;;;;;1.95;0.82;;;14.20;99.90;;;;;;5090959;28;20499;-63
2023/07/26 06:21:34;;;;;;;1.35;0.60;;;14.20;99.90;;;;;;5072159;28;20040;-63
2023/07/26 06:24:00;;;;;;;0.60;0.50;;;14.10;99.90;;;;;;5072867;28;20078;-63
2023/07/26 06:26:26;;;;;;;1.92;0.98;;;14.10;99.90;;;;;;5073372;28;20391;-63
2023/07/26 06:28:52;;;;;;;2.38;1.20;;;14.00;99.90;;;;;;5094119;28;20054;-63
2023/07/26 06:31:17;;;;;;;1.98;0.85;;;14.00;99.90;;;;;;5059597;28;20042;-64
2023/07/26 06:33:43;;;;;;;2.55;0.70;;;14.00;99.90;;;;;;5059099;28;20438;-64
2023/07/26 06:36:09;;;;;;;1.45;0.70;;;13.90;99.90;;;;;;5059034;28;20054;-65
2023/07/26 06:38:35;;;;;;;1.35;0.50;;;13.90;99.90;;;;;;5076302;28;20040;-63
2023/07/26 06:41:01;;;;;;;1.63;0.77;;;13.90;99.90;;;;;;5059044;28;20153;-64
2023/07/26 06:43:27;;;;;;;2.03;1.13;;;13.90;99.90;;;;;;5076142;28;20044;-64
2023/07/26 06:45:53;;;;;;;2.70;0.80;;;13.90;99.90;;;;;;5093670;28;20055;-63
2023/07/26 06:48:19;;;;;;;3.28;1.30;;;13.80;99.90;;;;;;5092955;28;20024;-60
2023/07/26 06:50:45;;;;;;;1.63;0.80;;;13.70;99.90;;;;;;5074951;28;20177;-61
2023/07/26 06:53:11;;;;;;;2.63;0.95;;;13.70;99.90;;;;;;5075221;28;20036;-62
2023/07/26 06:55:38;;;;;;;1.90;0.95;;;13.60;99.90;;;;;;5074568;28;20603;-62
2023/07/26 06:58:04;;;;;;;2.70;1.40;;;13.50;99.90;;;;;;5074918;28;20115;-62
2023/07/26 07:00:30;;;;;;;2.03;0.90;;;13.60;99.90;;;;;;5074719;28;20051;-62
2023/07/26 07:03:01;;;;;;;2.58;0.85;;;13.50;99.90;;;;;;5074546;28;20040;-62
2023/07/26 07:05:29;;;;;;;1.52;0.57;;;13.50;99.90;;;;;;5075282;28;20051;-63
2023/07/26 07:07:54;;;;;;;1.77;0.80;;;13.50;99.90;;;;;;5075241;28;20123;-62
2023/07/26 07:10:22;;;;;;;1.50;0.90;;;13.50;99.90;;;;;;5093229;28;20119;-62
2023/07/26 07:12:47;;;;;;;0.90;0.73;;;13.50;99.90;;;;;;5093197;28;20403;-62
2023/07/26 07:15:14;;;;;;;2.58;1.42;;;13.50;99.90;;;;;;5069275;28;20119;-62
2023/07/26 07:17:39;;;;;;;2.35;0.70;;;13.60;99.90;;;;;;5074366;28;20040;-62
2023/07/26 07:20:07;;;;;;;1.17;0.70;;;13.60;99.90;;;;;;5059768;28;20037;-62
2023/07/26 07:25:04;;;;;;;1.73;0.90;;;13.70;99.90;;;;;;5058345;23;20078;-87
2023/07/26 07:27:29;;;;;;;3.13;1.60;;;14.00;99.90;;;;;;5071870;28;20048;-87
2023/07/26 07:29:55;;;;;;;2.75;1.20;;;14.40;99.90;;;;;;5071641;28;20044;-87
2023/07/26 07:32:21;;;;;;;6.40;1.08;;;14.80;99.90;;;;;;5072281;28;20039;-87
2023/07/26 07:34:47;;;;;;;1.42;0.90;;;15.20;99.90;;;;;;5072536;28;20044;-88
2023/07/26 07:37:13;;;;;;;2.53;1.13;;;15.50;99.90;;;;;;5053874;28;20587;-88
2023/07/26 07:39:39;;;;;;;1.55;0.70;;;15.80;99.90;;;;;;5072612;28;20149;-89
2023/07/26 07:42:05;;;;;;;2.90;0.95;;;15.90;99.90;;;;;;5072657;28;20041;-89
2023/07/26 07:44:31;;;;;;;2.78;0.98;;;15.90;99.90;;;;;;5071972;28;20044;-89
2023/07/26 07:46:57;;;;;;;1.42;0.60;;;15.90;99.90;;;;;;5072496;28;20048;-89
2023/07/26 07:49:23;;;;;;;0.90;0.32;;;16.00;99.90;;;;;;5054753;28;20052;-90
2023/07/26 07:51:49;;;;;;;1.17;0.50;;;16.00;99.90;;;;;;5054301;28;20072;-89
2023/07/26 07:54:15;;;;;;;1.98;0.45;;;16.10;99.90;;;;;;5054879;28;20127;-90
2023/07/26 07:56:41;;;;;;;2.22;0.68;;;16.20;99.90;;;;;;5054775;28;20037;-89
2023/07/26 07:59:07;;;;;;;2.35;1.13;;;16.60;99.90;;;;;;5071302;28;20055;-89
2023/07/26 08:01:33;;;;;;;1.30;0.65;;;16.90;99.90;;;;;;5072393;28;20052;-89
2023/07/26 08:03:59;;;;;;;1.88;0.88;;;17.40;99.90;;;;;;5054091;28;20060;-89
2023/07/26 08:06:26;;;;;;;2.00;0.52;;;17.70;99.90;;;;;;5054089;28;20048;-91
2023/07/26 08:08:52;;;;;;;1.38;0.40;;;17.90;99.90;;;;;;5071851;28;20531;-89
2023/07/26 08:11:18;;;;;;;0.75;0.30;;;18.10;99.90;;;;;;5053933;28;20044;-89
2023/07/26 08:13:44;;;;;;;0.73;0.30;;;18.20;99.90;;;;;;5053686;28;20028;-89
2023/07/26 08:16:10;;;;;;;2.42;0.55;;;18.50;99.90;;;;;;5033825;28;20073;-90
2023/07/26 08:18:37;;;;;;;1.08;0.65;;;18.70;99.90;;;;;;5051730;28;20087;-89
2023/07/26 08:21:03;;;;;;;1.45;0.63;;;19.00;99.90;;;;;;5034151;28;20053;-89
2023/07/26 08:23:30;;;;;;;0.98;0.38;;;19.10;99.90;;;;;;5051543;28;20047;-88
2023/07/26 08:26:01;;;;;;;0.63;0.40;;;19.30;99.90;;;;;;5032685;28;20056;-90
2023/07/26 08:28:27;;;;;;;1.15;0.32;;;19.50;99.90;;;;;;5033890;28;20112;-89
2023/07/26 08:30:54;;;;;;;0.47;0.28;;;19.40;99.90;;;;;;5049856;28;20124;-90
2023/07/26 08:33:20;;;;;;;0.52;0.43;;;19.40;99.90;;;;;;5070936;28;20079;-89
2023/07/26 08:35:47;;;;;;;2.05;0.40;;;19.40;99.90;;;;;;5053514;28;20045;-90
2023/07/26 08:38:12;;;;;;;1.33;0.65;;;19.30;99.90;;;;;;5071354;28;20048;-89
2023/07/26 08:40:47;;;;;;;1.73;0.47;;;19.30;99.90;;;;;;5052866;28;20036;-89
2023/07/26 08:43:17;;;;;;;0.40;0.20;;;19.30;99.90;;;;;;5036512;28;20040;-87
2023/07/26 08:45:43;;;;;;;0.98;0.47;;;19.00;99.90;;;;;;5071217;28;20051;-88
2023/07/26 08:48:10;;;;;;;1.08;0.45;;;18.60;99.90;;;;;;5048710;28;20041;-86
2023/07/26 08:50:39;;;;;;;0.70;0.40;;;18.20;99.90;;;;;;5046958;28;20041;-87
2023/07/26 08:53:06;;;;;;;0.75;0.32;;;17.90;99.90;;;;;;5053167;28;20123;-87
2023/07/26 08:55:33;;;;;;;2.58;0.30;;;17.90;99.90;;;;;;5046757;28;20407;-86
2023/07/26 08:58:03;;;;;;;0.85;0.30;;;17.80;99.90;;;;;;5052631;28;20055;-86
2023/07/26 09:00:30;;;;;;;1.08;0.52;;;17.80;99.90;;;;;;5050594;28;20047;-85
2023/07/26 09:03:01;;;;;;;4.18;0.80;;;17.70;99.90;;;;;;5035151;28;20036;-88
2023/07/26 09:05:28;;;;;;;2.72;0.65;;;17.50;99.90;;;;;;5052765;28;20051;-88
2023/07/26 09:07:54;;;;;;;0.98;0.50;;;17.20;99.90;;;;;;5069842;28;20040;-88
2023/07/26 09:10:27;;;;;;;1.88;0.47;;;16.90;99.90;;;;;;5068174;28;20046;-88
2023/07/26 09:13:08;;;;;;;1.48;0.50;;;16.60;99.90;;;;;;5048505;28;20048;-88
2023/07/26 09:15:38;;;;;;;1.60;0.80;;;16.30;99.90;;;;;;5051979;28;20049;-87
2023/07/26 09:18:05;;;;;;;1.45;0.50;;;16.20;99.90;;;;;;5070671;28;20036;-88
2023/07/26 09:20:32;;;;;;;1.55;0.70;;;16.10;99.90;;;;;;5052465;28;20044;-88
2023/07/26 09:23:05;;;;;;;1.05;0.40;;;16.00;99.90;;;;;;5069674;28;20047;-88
2023/07/26 09:25:32;;;;;;;1.85;0.60;;;16.00;99.90;;;;;;5043196;28;20056;-88
2023/07/26 09:28:01;;;;;;;1.23;0.68;;;16.00;99.90;;;;;;5070355;28;20043;-88
2023/07/26 09:30:28;;;;;;;2.10;0.70;;;16.10;99.90;;;;;;5051364;28;20044;-88
2023/07/26 09:32:56;;;;;;;0.98;0.60;;;16.00;99.90;;;;;;5052203;28;20040;-88
2023/07/26 09:35:22;;;;;;;1.42;0.80;;;16.00;99.90;;;;;;5070448;28;20316;-88
2023/07/26 09:37:48;;;;;;;1.10;0.55;;;16.00;99.90;;;;;;5052020;28;20074;-89
2023/07/26 09:40:14;;;;;;;1.75;0.80;;;16.00;99.90;;;;;;5052404;28;20033;-88
2023/07/26 09:42:44;;;;;;;1.58;0.80;;;15.90;99.90;;;;;;5056711;28;20040;-88
2023/07/26 09:45:16;;;;;;;2.35;1.48;;;15.90;99.90;;;;;;5016010;28;20134;-87
2023/07/26 09:47:41;;;;;;;2.85;0.90;;;16.00;99.90;;;;;;5032240;28;20045;-87
2023/07/26 09:50:23;;;;;;;3.35;0.88;;;16.00;99.90;;;;;;5038735;28;20060;-87
2023/07/26 09:52:51;;;;;;;1.45;0.75;;;16.20;99.90;;;;;;5044190;28;20047;-86
2023/07/26 09:55:17;;;;;;;3.28;1.10;;;16.30;99.90;;;;;;5053952;28;20069;-87
2023/07/26 09:57:43;;;;;;;1.75;0.75;;;16.40;99.90;;;;;;5031378;28;20041;-86
2023/07/26 10:00:11;;;;;;;1.75;0.80;;;16.50;99.90;;;;;;5038137;28;20102;-86
2023/07/26 10:02:37;;;;;;;1.52;0.40;;;16.60;99.90;;;;;;5053251;28;20053;-87
2023/07/26 10:05:05;;;;;;;2.88;1.05;;;16.80;99.90;;;;;;5065779;28;20400;-87
2023/07/26 10:07:31;;;;;;;1.83;0.63;;;16.80;99.90;;;;;;5073186;28;20037;-87
2023/07/26 10:09:58;;;;;;;0.93;0.50;;;16.70;99.90;;;;;;5055097;28;20109;-86
2023/07/26 10:12:26;;;;;;;2.55;0.93;;;16.60;99.90;;;;;;5054879;28;20127;-86
2023/07/26 10:14:56;;;;;;;2.53;0.73;;;16.30;99.90;;;;;;5054508;28;20054;-86
2023/07/26 10:17:24;;;;;;;;;;;16.10;99.90;;;;;;5056194;28;20044;-87
2023/07/26 10:19:52;;;;;;;1.23;0.68;;;15.80;99.90;;;;;;5055242;28;19946;-88
2023/07/26 10:22:18;;;;;;;0.90;0.30;;;15.50;99.90;;;;;;5055430;28;20508;-87
2023/07/26 10:24:45;;;;;;;4.85;0.30;;;15.20;99.90;;;;;;5038796;28;20041;-85
2023/07/26 10:27:12;;;;;;;1.08;0.20;;;15.00;99.90;;;;;;5055457;28;20056;-90
2023/07/26 10:29:38;;;;;;;1.08;0.38;;;14.80;99.90;;;;;;5062724;28;20198;-94
2023/07/26 10:32:06;;;;;;;0.70;0.50;;;14.80;99.90;;;;;;5058135;28;20041;-85
2023/07/26 10:34:32;;;;;;;1.20;0.40;;;14.70;99.90;;;;;;5055361;28;20060;-86
2023/07/26 10:36:58;;;;;;;1.73;0.68;;;14.80;99.90;;;;;;5071766;28;20039;-86
2023/07/26 10:39:29;;;;;;;2.17;0.85;;;15.00;99.90;;;;;;5072906;28;20051;-87
2023/07/26 10:41:55;;;;;;;2.35;0.85;;;15.50;99.90;;;;;;5073323;28;20047;-87
2023/07/26 10:44:21;;;;;;;1.77;0.80;;;16.00;99.90;;;;;;5072002;28;20075;-87
2023/07/26 10:47:03;;;;;;;1.95;0.73;;;16.30;99.90;;;;;;5072242;28;20036;-87
2023/07/26 10:49:31;;;;;;;0.75;0.40;;;16.70;99.90;;;;;;5054011;28;20174;-86
2023/07/26 10:51:59;;;;;;;1.55;0.65;;;17.10;99.90;;;;;;5053224;28;20451;-87
2023/07/26 10:54:46;;;;;;;1.43;0.53;;;17.50;99.90;;;;;;5052668;28;20041;-87
2023/07/26 10:57:27;;;;;;;0.70;0.30;;;17.90;99.90;;;;;;5066547;28;20262;-87
2023/07/26 11:00:14;;;;;;;0.70;0.28;;;18.10;99.90;;;;;;5071894;28;20107;-87
2023/07/26 11:02:50;;;;;;;0.30;0.13;;;18.10;99.90;;;;;;5073175;28;20045;-87
2023/07/26 11:05:18;;;;;;;0.20;0.10;;;18.30;99.90;;;;;;5054910;28;20040;-87
2023/07/26 11:08:02;;;;;;;0.40;0.25;;;18.50;99.90;;;;;;5054376;28;20182;-87
2023/07/26 11:10:31;;;;;;;0.75;0.20;;;18.90;99.90;;;;;;5072616;28;20484;-87
2023/07/26 11:13:18;;;;;;;0.93;0.50;;;18.90;99.90;;;;;;5054544;28;20079;-87
2023/07/26 11:15:49;;;;;;;1.08;0.60;;;19.00;99.90;;;;;;5072428;28;20162;-88
2023/07/26 11:18:17;;;;;;;0.43;0.22;;;19.10;99.90;;;;;;5054950;28;20051;-88
2023/07/26 11:20:48;;;;;;;0.82;0.43;;;19.20;99.90;;;;;;5070850;28;20098;-87
2023/07/26 11:23:24;;;;;;;1.38;0.50;;;19.20;99.90;;;;;;5071525;28;20706;-88
2023/07/26 11:25:53;;;;;;;0.80;0.32;;;19.50;99.90;;;;;;5054774;28;20491;-88
2023/07/26 11:28:20;;;;;;;0.50;0.20;;;19.90;99.90;;;;;;5054415;28;20076;-88
2023/07/26 11:30:48;;;;;;;1.10;0.50;;;20.30;99.90;;;;;;5071285;28;20056;-88
2023/07/26 11:33:28;;;;;;;0.82;0.32;;;20.50;99.90;;;;;;5071219;28;20090;-88
2023/07/26 11:35:54;;;;;;;0.57;0.32;;;20.50;99.90;;;;;;5072096;28;20441;-88
2023/07/26 11:38:20;;;;;;;2.13;0.57;;;20.60;99.90;;;;;;5054919;28;20076;-88
2023/07/26 11:40:46;;;;;;;0.63;0.50;;;20.70;99.90;;;;;;5054476;28;20523;-86
2023/07/26 11:43:12;;;;;;;3.17;0.80;;;20.80;99.90;;;;;;5053762;28;20484;-86
2023/07/26 11:45:41;;;;;;;2.25;0.60;;;20.80;99.90;;;;;;5054483;28;20036;-85
2023/07/26 11:48:09;;;;;;;1.33;0.38;;;20.60;99.90;;;;;;5054444;28;20648;-86
2023/07/26 11:50:36;;;;;;;1.42;0.47;;;20.30;99.90;;;;;;5053408;28;20090;-86
2023/07/26 11:53:07;;;;;;;1.30;0.50;;;20.20;99.90;;;;;;5054024;28;20565;-86
2023/07/26 11:55:40;;;;;;;1.75;0.57;;;20.00;99.90;;;;;;5054188;28;20040;-86
2023/07/26 11:58:08;;;;;;;1.02;0.40;;;19.60;99.90;;;;;;5072014;28;20503;-86
2023/07/26 12:00:40;;;;;;;1.88;0.35;;;19.40;99.90;;;;;;5063734;28;20075;-86
2023/07/26 12:03:07;;;;;;;2.08;1.00;;;19.30;99.90;;;;;;5033681;28;20037;-87
2023/07/26 12:05:33;;;;;;;1.42;0.60;;;19.30;99.90;;;;;;5034378;28;20045;-86
2023/07/26 12:08:04;;;;;;;2.65;0.73;;;19.30;99.90;;;;;;5034812;28;20041;-87
2023/07/26 12:10:34;;;;;;;1.17;0.77;;;19.40;99.90;;;;;;5033789;28;20052;-87
2023/07/26 12:13:04;;;;;;;2.03;0.80;;;19.50;99.90;;;;;;5034220;28;20053;-88
2023/07/26 12:15:30;;;;;;;1.83;0.68;;;19.70;99.90;;;;;;5040916;28;20071;-87
2023/07/26 12:17:58;;;;;;;1.33;0.50;;;19.90;99.90;;;;;;5071137;28;20106;-88
2023/07/26 12:20:25;;;;;;;2.70;0.93;;;19.80;99.90;;;;;;5054040;28;20102;-87
2023/07/26 12:22:56;;;;;;;2.15;0.70;;;19.70;99.90;;;;;;5053894;28;20050;-88
2023/07/26 12:25:33;;;;;;;3.28;1.08;;;19.70;99.90;;;;;;5052028;28;20127;-88
2023/07/26 12:27:59;;;;;;;1.63;0.80;;;19.90;99.90;;;;;;5071544;28;20105;-87
2023/07/26 12:30:26;;;;;;;4.65;0.60;;;20.10;99.90;;;;;;5071549;28;20041;-86
2023/07/26 12:33:11;;;;;;;2.90;0.90;;;19.90;99.90;;;;;;5071031;28;20059;-88
2023/07/26 12:35:38;;;;;;;2.00;0.77;;;19.60;99.90;;;;;;5053851;28;20086;-85
2023/07/26 12:38:21;;;;;;;3.03;0.85;;;19.20;99.90;;;;;;5053197;28;20396;-86
2023/07/26 12:40:49;;;;;;;2.25;0.90;;;18.90;99.90;;;;;;5046139;28;20388;-85
2023/07/26 12:43:29;;;;;;;2.83;0.85;;;18.60;99.90;;;;;;5051283;28;20051;-85
2023/07/26 12:46:00;;;;;;;1.75;0.88;;;18.40;99.90;;;;;;5032684;28;20037;-85
2023/07/26 12:48:28;;;;;;;2.13;0.80;;;18.30;99.90;;;;;;5036358;28;20087;-85
2023/07/26 12:50:55;;;;;;;4.15;1.10;;;18.20;99.90;;;;;;5053004;28;20041;-85